createdAt,value
2022-07-29T00:01:47.965Z,16.40
2022-07-29T00:04:16.125Z,16.32
2022-07-29T00:06:44.201Z,16.25
2022-07-29T00:09:12.210Z,16.27
2022-07-29T00:11:40.441Z,16.31
2022-07-29T00:14:10.387Z,16.26
2022-07-29T00:16:38.749Z,16.26
2022-07-29T00:19:07.898Z,16.29
2022-07-29T00:21:36.225Z,16.28
2022-07-29T00:24:04.434Z,16.26
2022-07-29T00:26:33.737Z,16.26
2022-07-29T00:29:32.630Z,16.21
2022-07-29T00:31:51.936Z,16.11
2022-07-29T00:34:37.488Z,16.02
2022-07-29T00:37:05.688Z,16.05
2022-07-29T00:39:35.878Z,16.06
2022-07-29T00:42:05.527Z,16.01
2022-07-29T00:44:38.049Z,16.03
2022-07-29T00:47:08.209Z,15.94
2022-07-29T00:49:36.259Z,15.92
2022-07-29T00:52:04.940Z,15.95
2022-07-29T00:54:33.227Z,15.93
2022-07-29T00:57:02.355Z,15.93
2022-07-29T00:59:35.109Z,15.91
2022-07-29T01:02:04.345Z,15.88
2022-07-29T01:04:34.591Z,15.81
2022-07-29T01:07:03.556Z,15.71
2022-07-29T01:09:40.821Z,15.67
2022-07-29T01:12:17.330Z,15.69
2022-07-29T01:14:46.949Z,15.59
2022-07-29T01:17:20.181Z,15.62
2022-07-29T01:19:58.853Z,15.65
2022-07-29T01:22:55.846Z,15.62
2022-07-29T01:25:53.080Z,15.64
2022-07-29T01:29:14.711Z,15.64
2022-07-29T01:31:59.400Z,15.54
2022-07-29T01:34:37.397Z,15.52
2022-07-29T01:37:11.593Z,15.57
2022-07-29T01:39:41.686Z,15.58
2022-07-29T01:42:17.778Z,15.60
2022-07-29T01:44:52.714Z,15.61
2022-07-29T01:47:27.961Z,15.58
2022-07-29T01:50:00.494Z,15.70
2022-07-29T01:52:34.913Z,15.75
2022-07-29T01:55:07.230Z,15.73
2022-07-29T01:57:38.156Z,15.81
2022-07-29T02:00:07.865Z,15.85
2022-07-29T02:02:39.841Z,15.82
2022-07-29T02:05:11.795Z,15.82
2022-07-29T02:07:42.475Z,15.85
2022-07-29T02:10:12.978Z,15.86
2022-07-29T02:12:43.302Z,15.92
2022-07-29T02:15:19.168Z,15.93
2022-07-29T02:17:54.092Z,15.88
2022-07-29T02:20:24.239Z,15.89
2022-07-29T02:22:54.167Z,15.94
2022-07-29T02:25:24.308Z,15.96
2022-07-29T02:27:53.714Z,15.84
2022-07-29T02:30:24.246Z,15.86
2022-07-29T02:32:54.720Z,15.90
2022-07-29T02:35:24.599Z,15.91
2022-07-29T02:38:07.869Z,15.88
2022-07-29T02:40:38.400Z,15.86
2022-07-29T02:43:08.922Z,15.88
2022-07-29T02:45:36.847Z,15.90
2022-07-29T02:48:13.058Z,16.00
2022-07-29T02:50:46.718Z,15.99
2022-07-29T02:53:20.007Z,15.93
2022-07-29T02:55:53.580Z,15.88
2022-07-29T02:58:29.600Z,15.96
2022-07-29T03:01:00.509Z,15.91
2022-07-29T03:03:38.017Z,15.94
2022-07-29T03:06:08.836Z,15.92
2022-07-29T03:08:57.559Z,15.90
2022-07-29T03:11:40.120Z,15.91
2022-07-29T03:14:15.609Z,15.86
2022-07-29T03:16:44.141Z,15.93
2022-07-29T03:19:13.634Z,15.99
2022-07-29T03:21:41.788Z,15.92
2022-07-29T03:24:12.187Z,15.86
2022-07-29T03:26:40.105Z,15.92
2022-07-29T03:29:08.145Z,15.97
2022-07-29T03:31:41.951Z,16.05
2022-07-29T03:34:13.568Z,16.08
2022-07-29T03:36:41.679Z,16.12
2022-07-29T03:39:12.806Z,16.06
2022-07-29T03:41:42.824Z,16.01
2022-07-29T03:44:11.918Z,16.07
2022-07-29T03:46:41.994Z,16.08
2022-07-29T03:49:11.794Z,16.12
2022-07-29T03:51:41.252Z,16.14
2022-07-29T03:54:10.401Z,16.13
2022-07-29T03:56:42.115Z,16.14
2022-07-29T03:59:10.395Z,16.19
2022-07-29T04:01:40.701Z,16.19
2022-07-29T04:04:09.083Z,16.20
2022-07-29T04:06:42.618Z,16.31
2022-07-29T04:09:11.407Z,16.26
2022-07-29T04:11:59.261Z,16.40
2022-07-29T04:14:29.581Z,16.36
2022-07-29T04:16:59.746Z,16.35
2022-07-29T04:19:28.050Z,16.46
2022-07-29T04:21:57.526Z,16.50
2022-07-29T04:24:25.438Z,16.48
2022-07-29T04:26:53.777Z,16.50
2022-07-29T04:29:21.914Z,16.56
2022-07-29T04:31:49.734Z,16.55
2022-07-29T04:34:19.922Z,16.57
2022-07-29T04:36:48.136Z,16.60
2022-07-29T04:39:23.407Z,16.67
2022-07-29T04:41:52.379Z,16.72
2022-07-29T04:44:28.408Z,16.66
2022-07-29T04:47:00.416Z,16.70
2022-07-29T04:49:31.452Z,16.77
2022-07-29T04:51:59.554Z,16.72
2022-07-29T04:54:30.965Z,16.88
2022-07-29T04:56:59.220Z,17.00
2022-07-29T04:59:27.712Z,17.11
2022-07-29T05:01:55.634Z,17.21
2022-07-29T05:04:24.120Z,17.19
2022-07-29T05:06:52.046Z,17.28
2022-07-29T05:09:19.904Z,17.36
2022-07-29T05:11:49.464Z,17.48
2022-07-29T05:14:17.934Z,17.41
2022-07-29T05:16:45.980Z,17.44
2022-07-29T05:19:14.792Z,17.50
2022-07-29T05:21:43.355Z,17.64
2022-07-29T05:24:11.221Z,17.72
2022-07-29T05:26:39.210Z,17.85
2022-07-29T05:29:08.531Z,17.91
2022-07-29T05:31:56.475Z,17.97
2022-07-29T05:34:24.787Z,18.17
2022-07-29T05:36:52.862Z,18.24
2022-07-29T05:39:20.757Z,18.37
2022-07-29T05:41:51.982Z,18.37
2022-07-29T05:44:21.547Z,18.35
2022-07-29T05:46:53.334Z,18.31
2022-07-29T05:49:27.364Z,18.47
2022-07-29T05:51:55.497Z,18.73
2022-07-29T05:54:23.403Z,18.82
2022-07-29T05:56:51.331Z,18.90
2022-07-29T05:59:19.229Z,19.00
2022-07-29T06:01:49.902Z,19.17
2022-07-29T06:04:17.969Z,19.31
2022-07-29T06:06:46.603Z,19.36
2022-07-29T06:09:14.952Z,19.42
2022-07-29T06:11:42.805Z,19.56
2022-07-29T06:14:10.649Z,19.63
2022-07-29T06:16:38.639Z,19.48
2022-07-29T06:19:08.017Z,19.67
2022-07-29T06:21:38.700Z,19.81
2022-07-29T06:24:10.119Z,19.98
2022-07-29T06:26:39.950Z,20.23
2022-07-29T06:29:08.013Z,20.40
2022-07-29T06:31:36.803Z,20.48
2022-07-29T06:34:04.768Z,20.59
2022-07-29T06:36:37.640Z,20.75
2022-07-29T06:39:07.563Z,20.79
2022-07-29T06:41:36.491Z,20.87
2022-07-29T06:44:05.682Z,21.08
2022-07-29T06:46:33.805Z,21.38
2022-07-29T06:49:03.331Z,21.68
2022-07-29T06:51:31.473Z,22.76
2022-07-29T06:54:02.771Z,22.91
2022-07-29T06:56:32.564Z,22.84
2022-07-29T06:59:09.045Z,22.68
2022-07-29T07:01:38.183Z,22.82
2022-07-29T07:04:06.309Z,22.78
2022-07-29T07:06:34.200Z,23.00
2022-07-29T07:09:03.937Z,23.50
2022-07-29T07:11:32.145Z,23.81
2022-07-29T07:14:03.532Z,23.66
2022-07-29T07:16:33.313Z,23.94
2022-07-29T07:19:01.452Z,23.90
2022-07-29T07:21:30.458Z,23.74
2022-07-29T07:23:59.649Z,23.23
2022-07-29T07:26:29.352Z,23.17
2022-07-29T07:28:57.385Z,23.17
2022-07-29T07:31:25.411Z,23.07
2022-07-29T07:33:54.390Z,23.04
2022-07-29T07:36:22.667Z,22.93
2022-07-29T07:38:51.302Z,22.83
2022-07-29T07:41:19.398Z,22.68
2022-07-29T07:43:48.710Z,22.58
2022-07-29T07:46:17.002Z,22.80
2022-07-29T07:48:45.392Z,22.88
2022-07-29T07:51:13.603Z,22.92
2022-07-29T07:53:41.835Z,22.63
2022-07-29T07:56:11.805Z,22.66
2022-07-29T07:58:40.610Z,22.88
2022-07-29T08:01:10.909Z,23.21
2022-07-29T08:03:39.900Z,23.57
2022-07-29T08:06:08.787Z,23.98
2022-07-29T08:08:36.815Z,24.37
2022-07-29T08:11:09.033Z,24.88
2022-07-29T08:13:39.220Z,25.26
2022-07-29T08:16:16.437Z,25.93
2022-07-29T08:18:46.270Z,26.83
2022-07-29T08:21:14.803Z,27.82
2022-07-29T08:23:52.986Z,28.58
2022-07-29T08:26:26.009Z,29.29
2022-07-29T08:28:54.037Z,30.66
2022-07-29T08:31:23.325Z,31.96
2022-07-29T08:33:51.324Z,32.56
2022-07-29T08:36:19.363Z,32.70
2022-07-29T08:38:47.436Z,33.78
2022-07-29T08:41:15.448Z,33.89
2022-07-29T08:43:43.453Z,34.17
2022-07-29T08:46:11.422Z,34.67
2022-07-29T08:48:41.382Z,34.69
2022-07-29T08:51:10.563Z,34.95
2022-07-29T08:53:39.133Z,35.01
2022-07-29T08:56:07.953Z,35.28
2022-07-29T08:58:37.015Z,34.39
2022-07-29T09:01:07.766Z,34.27
2022-07-29T09:03:43.633Z,35.43
2022-07-29T09:06:14.956Z,35.74
2022-07-29T09:08:43.861Z,35.76
2022-07-29T09:11:12.587Z,36.09
2022-07-29T09:13:40.533Z,36.10
2022-07-29T09:16:09.730Z,35.96
2022-07-29T09:18:39.349Z,35.67
2022-07-29T09:21:27.379Z,34.68
2022-07-29T09:24:03.178Z,34.20
2022-07-29T09:26:32.088Z,33.60
2022-07-29T09:29:00.892Z,34.30
2022-07-29T09:31:37.430Z,33.37
2022-07-29T09:34:08.058Z,32.07
2022-07-29T09:36:42.895Z,31.18
2022-07-29T09:39:10.987Z,30.83
2022-07-29T09:41:48.261Z,30.14
2022-07-29T09:44:16.860Z,29.47
2022-07-29T09:46:59.159Z,28.73
2022-07-29T09:49:27.768Z,28.39
2022-07-29T09:52:18.257Z,28.46
2022-07-29T09:54:47.097Z,28.44
2022-07-29T09:57:30.322Z,28.50
2022-07-29T10:00:00.136Z,28.55
2022-07-29T10:02:33.255Z,28.33
2022-07-29T10:05:01.722Z,28.39
2022-07-29T10:07:50.516Z,28.37
2022-07-29T10:10:23.874Z,28.40
2022-07-29T10:12:54.903Z,28.27
2022-07-29T10:15:24.778Z,27.94
2022-07-29T10:17:53.408Z,27.64
2022-07-29T10:20:22.097Z,27.65
2022-07-29T10:22:53.734Z,27.82
2022-07-29T10:25:22.863Z,27.94
2022-07-29T10:27:52.128Z,27.81
2022-07-29T10:30:21.795Z,27.72
2022-07-29T10:33:17.482Z,27.52
2022-07-29T10:36:14.218Z,27.46
2022-07-29T10:38:57.792Z,27.43
2022-07-29T10:41:49.739Z,27.38
2022-07-29T10:44:23.198Z,27.39
2022-07-29T10:46:52.694Z,27.56
2022-07-29T10:49:25.234Z,27.43
2022-07-29T10:51:58.786Z,27.48
2022-07-29T10:54:51.118Z,27.46
2022-07-29T10:57:52.756Z,27.33
2022-07-29T11:00:31.505Z,27.34
2022-07-29T11:03:00.238Z,27.22
2022-07-29T11:05:32.005Z,27.26
2022-07-29T11:11:44.127Z,27.37
2022-07-29T11:14:20.097Z,28.01
2022-07-29T11:17:14.060Z,27.96
2022-07-29T11:19:49.270Z,28.13
2022-07-29T11:22:34.544Z,28.52
2022-07-29T11:25:16.838Z,28.77
2022-07-29T11:27:46.794Z,28.83
2022-07-29T11:30:16.211Z,28.97
2022-07-29T11:32:48.849Z,29.17
2022-07-29T11:38:28.689Z,28.86
2022-07-29T11:41:22.067Z,28.38
2022-07-29T11:43:53.358Z,28.16
2022-07-29T11:46:47.607Z,28.19
2022-07-29T11:49:21.945Z,28.18
2022-07-29T11:52:02.913Z,27.98
2022-07-29T11:54:33.943Z,27.95
2022-07-29T11:57:22.785Z,27.94
2022-07-29T12:00:10.040Z,27.96
2022-07-29T12:05:40.017Z,27.86
2022-07-29T12:07:02.499Z,28.01
2022-07-29T12:08:20.569Z,28.09
2022-07-29T12:10:50.176Z,27.98
2022-07-29T12:13:20.580Z,28.09
2022-07-29T12:15:59.988Z,28.26
2022-07-29T12:18:30.425Z,28.13
2022-07-29T12:21:04.911Z,27.87
2022-07-29T12:23:34.382Z,28.02
2022-07-29T12:26:07.505Z,28.02
2022-07-29T12:28:40.145Z,28.16
2022-07-29T12:31:42.168Z,28.22
2022-07-29T12:34:03.537Z,28.20
2022-07-29T12:36:31.665Z,28.20
2022-07-29T12:38:59.657Z,28.05
2022-07-29T12:41:29.967Z,28.03
2022-07-29T12:43:58.267Z,28.13
2022-07-29T12:46:27.619Z,28.20
2022-07-29T12:48:57.762Z,27.95
2022-07-29T12:51:32.071Z,27.96
2022-07-29T12:54:09.549Z,27.90
2022-07-29T12:56:45.287Z,27.67
2022-07-29T12:59:18.985Z,27.58
2022-07-29T13:01:50.309Z,27.59
2022-07-29T13:04:29.067Z,27.85
2022-07-29T13:07:06.459Z,28.12
2022-07-29T13:09:41.788Z,28.15
2022-07-29T13:12:11.206Z,28.13
2022-07-29T13:14:41.407Z,28.12
2022-07-29T13:17:13.099Z,28.05
2022-07-29T13:19:42.838Z,27.97
2022-07-29T13:22:11.494Z,28.12
2022-07-29T13:24:52.649Z,28.15
2022-07-29T13:27:23.031Z,28.05
2022-07-29T13:29:52.397Z,27.95
2022-07-29T13:32:28.473Z,27.76
2022-07-29T13:34:57.686Z,27.30
2022-07-29T13:37:25.791Z,27.26
2022-07-29T13:39:55.112Z,27.22
2022-07-29T13:42:23.208Z,27.11
2022-07-29T13:44:52.685Z,26.99
2022-07-29T13:47:22.887Z,26.74
2022-07-29T13:50:01.453Z,26.68
2022-07-29T13:52:29.420Z,26.69
2022-07-29T13:54:58.413Z,26.74
2022-07-29T13:57:26.488Z,26.55
2022-07-29T13:59:54.731Z,26.48
2022-07-29T14:02:25.818Z,26.17
2022-07-29T14:04:54.858Z,25.98
2022-07-29T14:07:23.561Z,26.19
2022-07-29T14:09:51.546Z,26.10
2022-07-29T14:12:20.224Z,26.13
2022-07-29T14:14:49.063Z,26.21
2022-07-29T14:17:17.111Z,26.41
2022-07-29T14:19:46.564Z,26.42
2022-07-29T14:22:14.583Z,26.56
2022-07-29T14:24:42.938Z,26.56
2022-07-29T14:27:10.986Z,26.68
2022-07-29T14:29:39.304Z,26.51
2022-07-29T14:32:08.627Z,26.43
2022-07-29T14:34:37.228Z,26.35
2022-07-29T14:37:07.328Z,26.40
2022-07-29T14:39:42.805Z,26.35
2022-07-29T14:42:12.431Z,26.19
2022-07-29T14:44:41.360Z,26.05
2022-07-29T14:47:09.632Z,26.08
2022-07-29T14:49:37.748Z,26.23
2022-07-29T14:52:07.440Z,26.32
2022-07-29T14:54:35.392Z,26.35
2022-07-29T14:57:05.664Z,26.43
2022-07-29T14:59:33.769Z,26.40
2022-07-29T15:02:02.435Z,26.39
2022-07-29T15:04:32.314Z,26.66
2022-07-29T15:07:00.363Z,26.66
2022-07-29T15:09:29.842Z,26.65
2022-07-29T15:11:58.163Z,26.74
2022-07-29T15:14:26.539Z,26.70
2022-07-29T15:16:54.452Z,26.65
2022-07-29T15:19:22.555Z,26.58
2022-07-29T15:21:50.471Z,26.34
2022-07-29T15:24:18.426Z,26.40
2022-07-29T15:26:48.399Z,26.39
2022-07-29T15:29:16.829Z,26.45
2022-07-29T15:31:45.273Z,26.38
2022-07-29T15:34:13.335Z,26.24
2022-07-29T15:36:51.876Z,26.02
2022-07-29T15:39:20.894Z,25.84
2022-07-29T15:41:50.196Z,25.75
2022-07-29T15:44:18.196Z,25.77
2022-07-29T15:47:05.118Z,25.71
2022-07-29T15:49:48.818Z,25.77
2022-07-29T15:52:24.836Z,25.93
2022-07-29T15:54:53.530Z,26.09
2022-07-29T15:57:23.344Z,26.04
2022-07-29T15:59:51.979Z,26.08
2022-07-29T16:02:20.252Z,26.00
2022-07-29T16:04:48.315Z,26.18
2022-07-29T16:07:16.409Z,26.18
2022-07-29T16:09:48.087Z,26.18
2022-07-29T16:12:19.145Z,26.27
2022-07-29T16:14:49.472Z,26.22
2022-07-29T16:17:17.657Z,26.18
2022-07-29T16:19:46.017Z,26.01
2022-07-29T16:22:14.459Z,25.94
2022-07-29T16:24:42.390Z,25.83
2022-07-29T16:27:10.679Z,25.86
2022-07-29T16:29:38.570Z,25.84
2022-07-29T16:32:08.187Z,25.82
2022-07-29T16:34:36.445Z,25.78
2022-07-29T16:37:05.101Z,25.59
2022-07-29T16:39:33.781Z,25.54
2022-07-29T16:42:04.992Z,25.55
2022-07-29T16:44:34.072Z,25.51
2022-07-29T16:47:03.412Z,25.46
2022-07-29T16:49:33.085Z,25.34
2022-07-29T16:52:01.079Z,25.39
2022-07-29T16:54:29.148Z,25.34
2022-07-29T16:56:57.549Z,25.41
2022-07-29T16:59:26.196Z,25.35
2022-07-29T17:01:54.131Z,25.17
2022-07-29T17:04:22.897Z,25.03
2022-07-29T17:06:52.570Z,25.10
2022-07-29T17:09:21.256Z,24.94
2022-07-29T17:11:55.077Z,24.85
2022-07-29T17:14:25.234Z,24.75
2022-07-29T17:17:02.400Z,24.72
2022-07-29T17:19:32.494Z,24.72
2022-07-29T17:22:10.412Z,24.68
2022-07-29T17:24:41.260Z,24.50
2022-07-29T17:27:09.708Z,24.36
2022-07-29T17:29:38.858Z,24.36
2022-07-29T17:32:09.143Z,24.30
2022-07-29T17:34:37.443Z,24.23
2022-07-29T17:37:07.936Z,24.17
2022-07-29T17:39:36.270Z,24.10
2022-07-29T17:42:04.455Z,24.09
2022-07-29T17:44:36.261Z,24.09
2022-07-29T17:47:05.157Z,23.93
2022-07-29T17:49:36.009Z,23.96
2022-07-29T17:52:04.424Z,23.92
2022-07-29T17:54:33.805Z,23.82
2022-07-29T17:57:01.958Z,23.82
2022-07-29T17:59:30.152Z,23.77
2022-07-29T18:01:58.107Z,23.75
2022-07-29T18:04:25.993Z,23.74
2022-07-29T18:06:53.925Z,23.74
2022-07-29T18:09:21.901Z,23.72
2022-07-29T18:11:51.181Z,23.75
2022-07-29T18:14:19.390Z,23.75
2022-07-29T18:16:47.355Z,23.74
2022-07-29T18:19:16.113Z,23.65
2022-07-29T18:21:53.940Z,23.64
2022-07-29T18:24:25.425Z,23.52
2022-07-29T18:26:55.162Z,23.44
2022-07-29T18:29:23.309Z,23.39
2022-07-29T18:31:51.182Z,23.28
2022-07-29T18:34:19.306Z,23.18
2022-07-29T18:36:47.462Z,23.17
2022-07-29T18:39:20.821Z,23.02
2022-07-29T18:41:53.150Z,22.97
2022-07-29T18:44:22.993Z,22.99
2022-07-29T18:46:51.628Z,22.97
2022-07-29T18:49:20.033Z,22.96
2022-07-29T18:51:48.269Z,22.92
2022-07-29T18:54:17.456Z,22.91
2022-07-29T18:56:45.670Z,22.84
2022-07-29T18:59:16.854Z,22.82
2022-07-29T19:01:46.705Z,22.73
2022-07-29T19:04:14.792Z,22.66
2022-07-29T19:06:43.249Z,22.56
2022-07-29T19:09:11.715Z,22.53
2022-07-29T19:11:39.939Z,22.59
2022-07-29T19:14:07.936Z,22.54
2022-07-29T19:16:36.166Z,22.59
2022-07-29T19:19:06.438Z,22.58
2022-07-29T19:21:36.167Z,22.41
2022-07-29T19:24:06.782Z,22.42
2022-07-29T19:26:39.396Z,22.41
2022-07-29T19:29:07.381Z,22.35
2022-07-29T19:31:35.438Z,22.30
2022-07-29T19:34:03.522Z,22.21
2022-07-29T19:36:32.815Z,22.25
2022-07-29T19:39:01.095Z,22.28
2022-07-29T19:41:29.282Z,22.20
2022-07-29T19:44:00.081Z,22.05
2022-07-29T19:46:29.149Z,22.07
2022-07-29T19:48:57.567Z,22.01
2022-07-29T19:51:25.703Z,22.00
2022-07-29T19:53:54.954Z,22.03
2022-07-29T19:56:25.381Z,22.02
2022-07-29T19:58:53.473Z,21.97
2022-07-29T20:01:21.580Z,21.92
2022-07-29T20:03:49.615Z,21.89
2022-07-29T20:06:17.664Z,21.85
2022-07-29T20:08:46.309Z,21.74
2022-07-29T20:11:15.989Z,21.69
2022-07-29T20:13:44.034Z,21.62
2022-07-29T20:16:12.184Z,21.58
2022-07-29T20:18:40.149Z,21.55
2022-07-29T20:21:08.013Z,21.56
2022-07-29T20:23:35.865Z,21.50
2022-07-29T20:26:08.698Z,21.47
2022-07-29T20:28:40.266Z,21.45
2022-07-29T20:31:08.964Z,21.36
2022-07-29T20:33:36.962Z,21.37
2022-07-29T20:36:06.054Z,21.34
2022-07-29T20:38:34.129Z,21.30
2022-07-29T20:41:02.034Z,21.32
2022-07-29T20:43:29.964Z,21.37
2022-07-29T20:46:05.685Z,21.37
2022-07-29T20:48:33.713Z,21.37
2022-07-29T20:51:01.618Z,21.47
2022-07-29T20:53:29.650Z,21.52
2022-07-29T20:56:00.021Z,21.55
2022-07-29T20:58:28.015Z,21.50
2022-07-29T21:00:56.436Z,21.52
2022-07-29T21:03:25.693Z,21.56
2022-07-29T21:05:53.732Z,21.54
2022-07-29T21:08:21.886Z,21.51
2022-07-29T21:10:49.817Z,21.55
2022-07-29T21:13:18.384Z,21.57
2022-07-29T21:15:49.683Z,21.59
2022-07-29T21:18:28.083Z,21.58
2022-07-29T21:20:58.161Z,21.52
2022-07-29T21:23:26.361Z,21.48
2022-07-29T21:25:55.493Z,21.38
2022-07-29T21:28:30.595Z,21.46
2022-07-29T21:31:00.793Z,21.39
2022-07-29T21:33:30.801Z,21.32
2022-07-29T21:36:35.521Z,21.37
2022-07-29T21:38:48.623Z,21.34
2022-07-29T21:41:16.643Z,21.38
2022-07-29T21:43:44.725Z,21.37
2022-07-29T21:46:12.875Z,21.34
2022-07-29T21:48:44.356Z,21.28
2022-07-29T21:51:14.146Z,21.26
2022-07-29T21:53:42.337Z,21.32
2022-07-29T21:56:14.685Z,21.30
2022-07-29T21:58:43.889Z,21.27
2022-07-29T22:01:12.171Z,21.24
2022-07-29T22:03:40.619Z,21.13
2022-07-29T22:06:08.974Z,21.14
2022-07-29T22:08:42.096Z,21.13
2022-07-29T22:11:10.615Z,21.02
2022-07-29T22:13:38.672Z,21.02
2022-07-29T22:16:07.805Z,20.99
2022-07-29T22:18:35.933Z,20.98
2022-07-29T22:21:06.802Z,20.95
2022-07-29T22:23:35.018Z,20.87
2022-07-29T22:26:04.936Z,20.84
2022-07-29T22:28:32.963Z,20.84
2022-07-29T22:31:01.009Z,20.85
2022-07-29T22:33:29.811Z,20.82
2022-07-29T22:35:57.889Z,20.86
2022-07-29T22:38:25.939Z,20.88
2022-07-29T22:41:00.464Z,20.92
2022-07-29T22:43:30.927Z,20.92
2022-07-29T22:45:58.935Z,20.97
2022-07-29T22:48:26.916Z,20.97
2022-07-29T22:50:54.915Z,20.86
2022-07-29T22:53:23.429Z,20.83
2022-07-29T22:55:51.878Z,20.81
2022-07-29T22:58:19.832Z,20.78
2022-07-29T23:00:49.101Z,20.73
2022-07-29T23:03:17.088Z,20.66
2022-07-29T23:05:45.093Z,20.61
2022-07-29T23:08:12.994Z,20.62
2022-07-29T23:10:40.895Z,20.60
2022-07-29T23:13:08.960Z,20.54
2022-07-29T23:15:36.877Z,20.49
2022-07-29T23:18:06.246Z,20.48
2022-07-29T23:20:34.508Z,20.48
2022-07-29T23:23:02.450Z,20.50
2022-07-29T23:25:30.341Z,20.49
2022-07-29T23:27:58.252Z,20.45
2022-07-29T23:30:26.548Z,20.43
2022-07-29T23:32:55.061Z,20.42
2022-07-29T23:35:25.195Z,20.45
2022-07-29T23:37:53.151Z,20.45
2022-07-29T23:40:21.155Z,20.48
2022-07-29T23:42:49.219Z,20.47
2022-07-29T23:45:17.195Z,20.48
2022-07-29T23:47:45.164Z,20.51
2022-07-29T23:50:14.060Z,20.55
2022-07-29T23:52:43.665Z,20.53
2022-07-29T23:55:36.372Z,20.56
2022-07-29T23:58:02.983Z,20.54
